createdAt,value
2022-11-06T00:02:50.321Z,3.15
2022-11-06T00:12:52.969Z,2.78
2022-11-06T00:22:54.571Z,3.37
2022-11-06T00:32:58.071Z,2.67
2022-11-06T00:42:59.748Z,2.80
2022-11-06T00:53:01.423Z,2.80
2022-11-06T01:03:03.261Z,3.42
2022-11-06T01:13:10.845Z,3.28
2022-11-06T01:23:12.414Z,2.83
2022-11-06T01:33:13.983Z,2.92
2022-11-06T01:43:18.966Z,3.03
2022-11-06T01:53:23.671Z,3.20
2022-11-06T02:03:25.603Z,3.35
2022-11-06T02:13:44.925Z,3.05
2022-11-06T02:24:08.698Z,3.40
2022-11-06T02:44:26.351Z,3.00
2022-11-06T02:54:31.219Z,3.15
2022-11-06T03:04:48.988Z,3.90
2022-11-06T03:15:14.065Z,4.25
2022-11-06T03:25:39.725Z,4.40
2022-11-06T03:35:47.403Z,3.95
2022-11-06T03:45:52.745Z,4.50
2022-11-06T03:56:02.061Z,4.85
2022-11-06T04:06:13.396Z,5.65
2022-11-06T04:16:19.446Z,6.45
2022-11-06T04:26:38.077Z,6.80
2022-11-06T04:36:53.547Z,6.82
2022-11-06T04:47:00.237Z,7.43
2022-11-06T04:57:03.980Z,7.95
2022-11-06T05:07:06.631Z,8.77
2022-11-06T05:17:08.250Z,9.73
2022-11-06T05:27:10.928Z,10.50
2022-11-06T05:37:12.504Z,9.53
2022-11-06T05:47:14.092Z,9.48
2022-11-06T05:57:16.043Z,10.27
2022-11-06T06:07:17.730Z,9.63
2022-11-06T06:17:19.874Z,10.38
2022-11-06T06:27:21.538Z,10.85
2022-11-06T06:37:23.163Z,10.93
2022-11-06T06:47:24.954Z,11.15
2022-11-06T06:57:26.517Z,11.25
2022-11-06T07:07:28.130Z,12.05
2022-11-06T07:17:30.882Z,12.55
2022-11-06T07:27:32.596Z,12.70
2022-11-06T07:37:36.029Z,13.10
2022-11-06T07:47:37.731Z,13.65
2022-11-06T07:57:39.557Z,13.63
2022-11-06T08:07:41.340Z,14.00
2022-11-06T08:17:43.712Z,14.20
2022-11-06T08:27:47.109Z,14.17
2022-11-06T08:37:56.196Z,14.35
2022-11-06T08:48:07.063Z,13.98
2022-11-06T08:58:09.981Z,13.85
2022-11-06T09:08:13.066Z,13.70
2022-11-06T09:18:21.164Z,12.63
2022-11-06T09:28:22.941Z,14.50
2022-11-06T09:38:26.009Z,11.93
2022-11-06T09:48:35.869Z,11.85
2022-11-06T09:58:42.192Z,11.68
2022-11-06T10:08:44.665Z,10.38
2022-11-06T10:19:07.583Z,10.60
2022-11-06T10:29:46.472Z,11.45
2022-11-06T10:39:53.060Z,12.32
2022-11-06T10:49:59.455Z,9.13
2022-11-06T11:00:05.739Z,7.57
2022-11-06T11:10:28.220Z,6.78
2022-11-06T11:20:33.255Z,8.10
2022-11-06T11:30:37.081Z,7.50
2022-11-06T11:40:40.974Z,6.22
2022-11-06T11:50:43.735Z,5.80
2022-11-06T12:00:59.502Z,4.72
2022-11-06T12:11:08.611Z,15.55
2022-11-06T12:21:16.435Z,5.00
2022-11-06T12:31:28.002Z,5.10
2022-11-06T12:41:33.981Z,3.97
2022-11-06T12:51:55.293Z,4.05
2022-11-06T13:02:16.123Z,4.55
2022-11-06T13:12:40.562Z,3.88
2022-11-06T13:22:59.070Z,4.55
2022-11-06T13:33:09.836Z,4.93
2022-11-06T13:43:11.536Z,5.63
2022-11-06T13:53:32.156Z,7.15
2022-11-06T14:03:41.749Z,6.63
2022-11-06T14:14:12.182Z,8.07
2022-11-06T14:24:43.809Z,8.38
2022-11-06T14:34:49.084Z,7.22
2022-11-06T14:44:57.405Z,6.47
2022-11-06T14:55:05.772Z,6.07
2022-11-06T15:05:17.022Z,7.15
2022-11-06T15:15:20.808Z,8.10
2022-11-06T15:25:26.561Z,9.38
2022-11-06T15:35:34.664Z,9.68
2022-11-06T15:45:37.680Z,8.93
2022-11-06T15:55:51.740Z,10.20
2022-11-06T16:06:00.718Z,11.07
2022-11-06T16:16:03.469Z,9.82
2022-11-06T16:26:12.047Z,12.50
2022-11-06T16:36:14.604Z,14.05
2022-11-06T16:46:16.761Z,16.27
2022-11-06T16:56:24.916Z,18.97
2022-11-06T17:06:30.606Z,20.50
2022-11-06T17:16:49.887Z,29.77
2022-11-06T17:26:56.756Z,25.85
2022-11-06T17:36:58.972Z,23.15
2022-11-06T17:47:02.388Z,26.77
2022-11-06T17:57:07.778Z,25.00
2022-11-06T18:07:10.980Z,25.70
2022-11-06T18:27:15.589Z,24.33
2022-11-06T18:37:17.759Z,27.30
2022-11-06T18:47:24.788Z,27.63
2022-11-06T18:57:27.143Z,28.73
2022-11-06T19:07:38.599Z,30.88
2022-11-06T19:17:40.368Z,30.10
2022-11-06T19:27:55.883Z,31.02
2022-11-06T19:37:59.525Z,33.00
2022-11-06T19:48:01.736Z,32.63
2022-11-06T19:58:04.697Z,34.33
2022-11-06T20:08:07.361Z,32.97
2022-11-06T20:18:21.124Z,33.97
2022-11-06T20:28:23.979Z,35.50
2022-11-06T20:38:28.060Z,37.13
2022-11-06T20:48:31.374Z,36.50
2022-11-06T20:58:51.717Z,39.85
2022-11-06T21:08:54.490Z,38.90
2022-11-06T21:19:00.642Z,38.07
2022-11-06T21:29:10.960Z,36.97
2022-11-06T21:39:26.025Z,36.58
2022-11-06T21:49:28.001Z,39.58
2022-11-06T21:59:30.085Z,36.55
2022-11-06T22:09:31.742Z,37.42
2022-11-06T22:19:34.374Z,37.58
2022-11-06T22:29:39.360Z,40.57
2022-11-06T22:39:41.011Z,39.75
2022-11-06T22:49:42.756Z,41.42
2022-11-06T22:59:44.566Z,41.72
2022-11-06T23:09:47.297Z,43.30
2022-11-06T23:19:56.419Z,53.90
2022-11-06T23:30:00.971Z,52.80
2022-11-06T23:40:03.841Z,50.42
2022-11-06T23:50:07.105Z,56.93
